Time;durP1;ratioP1;P1;durP2;ratioP2;P2;SDS_P1;SDS_P2;PMS_P1;PMS_P2;Temp;Humidity;BMP_temperature;BMP_pressure;BME280_temperature;BME280_humidity;BME280_pressure;Samples;Min_cycle;Max_cycle;Signal;HPM_P1;HPM_P2
2020/12/12 00:02:15;;;;;;;14.47;12.17;;;4.80;99.90;;;;;;5057391;28;20199;-50
2020/12/12 00:04:41;;;;;;;13.50;10.80;;;4.80;99.90;;;;;;5057333;28;20167;-58
2020/12/12 00:07:07;;;;;;;16.70;13.90;;;4.70;99.90;;;;;;5056790;28;20724;-56
2020/12/12 00:09:33;;;;;;;15.27;12.47;;;4.70;99.90;;;;;;5057832;28;20175;-53
2020/12/12 00:11:59;;;;;;;13.20;10.90;;;4.70;99.90;;;;;;5056712;28;20194;-60
2020/12/12 00:14:24;;;;;;;12.70;10.63;;;4.70;99.90;;;;;;5056998;28;20278;-50
2020/12/12 00:16:54;;;;;;;12.37;10.87;;;4.60;99.90;;;;;;5056967;28;20282;-57
2020/12/12 00:19:20;;;;;;;13.43;10.77;;;4.60;99.90;;;;;;5057052;28;20179;-51
2020/12/12 00:21:53;;;;;;;12.90;10.43;;;4.50;99.90;;;;;;5056818;28;20191;-52
2020/12/12 00:24:19;;;;;;;12.47;10.27;;;4.50;99.90;;;;;;5056295;28;20191;-54
2020/12/12 00:26:45;;;;;;;14.50;11.33;;;4.40;99.90;;;;;;5056561;28;20233;-61
2020/12/12 00:29:12;;;;;;;12.97;10.43;;;4.30;99.90;;;;;;5056825;28;20551;-56
2020/12/12 00:31:39;;;;;;;14.47;12.17;;;4.40;99.90;;;;;;5056192;28;20203;-61
2020/12/12 00:34:05;;;;;;;13.83;11.67;;;4.40;99.90;;;;;;5057252;28;20630;-60
2020/12/12 00:36:30;;;;;;;12.87;10.57;;;4.30;99.90;;;;;;5056682;28;20175;-58
2020/12/12 00:38:56;;;;;;;15.93;11.73;;;4.30;99.90;;;;;;5055765;28;20186;-55
2020/12/12 00:41:21;;;;;;;12.83;11.20;;;4.40;99.90;;;;;;5056713;28;20201;-52
2020/12/12 00:43:47;;;;;;;13.97;11.53;;;4.40;99.90;;;;;;5055514;28;20171;-58
2020/12/12 00:46:12;;;;;;;13.03;10.27;;;4.30;99.90;;;;;;5054846;28;20202;-54
2020/12/12 00:48:38;;;;;;;12.00;10.17;;;4.40;99.90;;;;;;5055671;28;20245;-61
2020/12/12 00:51:04;;;;;;;14.13;11.37;;;4.40;99.90;;;;;;5054530;28;20674;-53
2020/12/12 00:53:29;;;;;;;12.73;10.40;;;4.40;99.90;;;;;;5055389;28;20172;-59
2020/12/12 00:55:56;;;;;;;13.73;10.67;;;4.50;99.90;;;;;;5055889;28;20183;-58
2020/12/12 00:58:21;;;;;;;12.90;10.93;;;4.60;99.90;;;;;;5055783;28;20609;-61
2020/12/12 01:00:47;;;;;;;12.53;10.23;;;4.60;99.90;;;;;;5056056;28;20195;-52
2020/12/12 01:03:13;;;;;;;14.07;11.63;;;4.70;99.90;;;;;;5056230;28;20175;-61
2020/12/12 01:05:39;;;;;;;13.70;11.43;;;4.80;99.90;;;;;;5055778;28;20167;-53
2020/12/12 01:08:04;;;;;;;13.23;10.73;;;4.80;99.90;;;;;;5056319;28;20195;-60
2020/12/12 01:10:30;;;;;;;12.40;10.60;;;4.90;99.90;;;;;;5055724;28;20199;-59
2020/12/12 01:12:56;;;;;;;14.23;11.83;;;4.90;99.90;;;;;;5055266;28;20239;-57
2020/12/12 01:15:22;;;;;;;13.30;10.87;;;4.90;99.90;;;;;;5055152;28;20300;-58
2020/12/12 01:17:47;;;;;;;12.40;10.60;;;4.90;99.90;;;;;;5054815;28;20191;-55
2020/12/12 01:20:13;;;;;;;12.33;10.50;;;4.90;99.90;;;;;;5056232;28;20233;-60
2020/12/12 01:22:39;;;;;;;13.30;10.37;;;4.90;99.90;;;;;;5055629;28;20732;-51
2020/12/12 01:25:05;;;;;;;12.20;10.37;;;4.90;99.90;;;;;;5055530;28;20217;-58
2020/12/12 01:27:30;;;;;;;10.57;9.33;;;4.90;99.90;;;;;;5055420;28;20222;-59
2020/12/12 01:29:56;;;;;;;11.63;9.87;;;4.90;99.90;;;;;;5054483;28;20163;-58
2020/12/12 01:32:21;;;;;;;11.77;9.73;;;4.90;99.90;;;;;;5054785;28;20179;-57
2020/12/12 01:34:47;;;;;;;12.53;9.63;;;4.80;99.90;;;;;;5054173;28;20175;-57
2020/12/12 01:37:13;;;;;;;11.70;9.57;;;4.80;99.90;;;;;;5054576;28;20199;-56
2020/12/12 01:39:38;;;;;;;11.07;9.23;;;4.80;99.90;;;;;;5055388;28;20171;-53
2020/12/12 01:42:04;;;;;;;12.10;9.30;;;4.70;99.90;;;;;;5055516;28;20207;-58
2020/12/12 01:44:29;;;;;;;10.30;8.67;;;4.70;99.90;;;;;;5055042;28;20198;-52
2020/12/12 01:46:57;;;;;;;10.83;9.40;;;4.60;99.90;;;;;;5055142;28;20682;-53
2020/12/12 01:49:23;;;;;;;9.90;8.37;;;4.60;99.90;;;;;;5055916;28;20175;-61
2020/12/12 01:51:49;;;;;;;11.17;8.80;;;4.70;99.90;;;;;;5055255;28;20549;-52
2020/12/12 01:54:15;;;;;;;10.73;9.07;;;4.70;99.90;;;;;;5054459;28;20218;-59
2020/12/12 01:56:41;;;;;;;11.17;9.43;;;4.70;99.90;;;;;;5054467;28;20285;-55
2020/12/12 01:59:06;;;;;;;10.37;9.00;;;4.70;99.90;;;;;;5053074;28;20183;-51
2020/12/12 02:01:38;;;;;;;11.07;9.20;;;4.70;99.90;;;;;;5053186;28;20214;-59
2020/12/12 02:04:07;;;;;;;11.07;9.10;;;4.70;99.90;;;;;;5054230;28;20167;-51
2020/12/12 02:06:35;;;;;;;11.37;9.93;;;4.70;99.90;;;;;;5053062;28;20878;-51
2020/12/12 02:09:01;;;;;;;9.97;8.83;;;4.80;99.90;;;;;;5053989;28;20218;-60
2020/12/12 02:11:27;;;;;;;10.33;8.70;;;4.80;99.90;;;;;;5054189;28;20217;-61
2020/12/12 02:13:55;;;;;;;10.30;8.90;;;4.80;99.90;;;;;;5054178;28;20207;-53
2020/12/12 02:16:21;;;;;;;11.57;9.23;;;4.80;99.90;;;;;;5053923;28;20696;-55
2020/12/12 02:18:46;;;;;;;10.50;8.93;;;4.80;99.90;;;;;;5054511;28;20221;-52
2020/12/12 02:21:12;;;;;;;11.37;9.10;;;4.80;99.90;;;;;;5054542;28;20650;-61
2020/12/12 02:23:37;;;;;;;11.53;9.67;;;4.70;99.90;;;;;;5053601;28;20174;-51
2020/12/12 02:26:04;;;;;;;9.27;8.27;;;4.80;99.90;;;;;;5054331;28;20523;-60
2020/12/12 02:28:42;;;;;;;11.20;9.60;;;4.80;99.90;;;;;;5053353;28;20250;-52
2020/12/12 02:31:08;;;;;;;11.27;10.07;;;4.80;99.90;;;;;;5052862;28;20569;-57
2020/12/12 02:33:33;;;;;;;12.57;9.87;;;4.80;99.90;;;;;;5053837;28;20627;-59
2020/12/12 02:35:59;;;;;;;11.23;10.03;;;4.80;99.90;;;;;;5052866;28;20167;-52
2020/12/12 02:38:24;;;;;;;11.90;10.23;;;4.80;99.90;;;;;;5053823;28;20225;-59
2020/12/12 02:40:51;;;;;;;11.13;9.93;;;4.80;99.90;;;;;;5054758;28;20657;-56
2020/12/12 02:43:17;;;;;;;10.47;9.37;;;4.80;99.90;;;;;;5054474;28;20176;-56
2020/12/12 02:45:46;;;;;;;11.00;9.30;;;4.80;99.90;;;;;;5054011;28;20187;-55
2020/12/12 02:48:13;;;;;;;11.57;9.53;;;4.80;99.90;;;;;;5054076;28;20187;-57
2020/12/12 02:50:39;;;;;;;11.30;9.60;;;4.80;99.90;;;;;;5052127;28;20258;-59
2020/12/12 02:53:04;;;;;;;10.27;9.17;;;4.80;99.90;;;;;;5054099;28;20262;-60
2020/12/12 02:55:30;;;;;;;11.63;9.07;;;4.80;99.90;;;;;;5053921;28;20522;-61
2020/12/12 02:57:56;;;;;;;10.33;8.93;;;4.80;99.90;;;;;;5054204;28;20194;-52
2020/12/12 03:00:24;;;;;;;10.37;9.00;;;4.80;99.90;;;;;;5054247;28;20650;-58
2020/12/12 03:02:50;;;;;;;12.60;10.40;;;4.80;99.90;;;;;;5053984;28;20203;-61
2020/12/12 03:05:16;;;;;;;12.73;10.33;;;4.80;99.90;;;;;;5054188;28;20561;-60
2020/12/12 03:07:42;;;;;;;13.17;10.80;;;4.80;99.90;;;;;;5048624;28;20197;-51
2020/12/12 03:10:08;;;;;;;13.27;10.50;;;4.80;99.90;;;;;;5054409;28;20175;-52
2020/12/12 03:12:35;;;;;;;14.10;11.83;;;4.80;99.90;;;;;;5054103;28;20187;-56
2020/12/12 03:15:01;;;;;;;14.43;12.17;;;4.70;99.90;;;;;;5054108;28;20576;-55
2020/12/12 03:17:27;;;;;;;14.13;11.70;;;4.70;99.90;;;;;;5053913;28;20645;-52
2020/12/12 03:19:52;;;;;;;12.83;10.93;;;4.70;99.90;;;;;;5054338;28;20220;-60
2020/12/12 03:22:18;;;;;;;14.07;12.10;;;4.70;99.90;;;;;;5053450;28;20210;-60
2020/12/12 03:24:44;;;;;;;14.10;12.13;;;4.70;99.90;;;;;;5053170;28;20703;-54
2020/12/12 03:27:10;;;;;;;12.67;11.27;;;4.70;99.90;;;;;;5053022;28;20191;-54
2020/12/12 03:29:37;;;;;;;14.90;13.03;;;4.80;99.90;;;;;;5052260;28;20183;-52
2020/12/12 03:32:05;;;;;;;18.17;13.47;;;4.80;99.90;;;;;;5053873;28;20253;-51
2020/12/12 03:34:31;;;;;;;15.50;12.67;;;4.90;99.90;;;;;;5054644;28;20206;-57
2020/12/12 03:36:56;;;;;;;16.00;12.90;;;4.90;99.90;;;;;;5058006;28;20596;-56
2020/12/12 03:39:22;;;;;;;16.80;13.47;;;4.80;99.90;;;;;;5057755;28;20236;-55
2020/12/12 03:41:47;;;;;;;17.13;14.40;;;4.80;99.90;;;;;;5057391;28;20562;-60
2020/12/12 03:44:13;;;;;;;15.50;13.33;;;4.80;99.90;;;;;;5057451;28;20228;-55
2020/12/12 03:46:38;;;;;;;14.63;12.33;;;4.80;99.90;;;;;;5057505;28;20286;-51
2020/12/12 03:49:04;;;;;;;12.73;11.37;;;4.70;99.90;;;;;;5057006;28;20190;-54
2020/12/12 03:51:29;;;;;;;13.67;11.50;;;4.60;99.90;;;;;;5055844;28;20271;-60
2020/12/12 03:53:55;;;;;;;13.97;12.33;;;4.70;99.90;;;;;;5057211;28;20183;-60
2020/12/12 03:56:20;;;;;;;13.30;10.97;;;4.70;99.90;;;;;;5057076;28;20261;-52
2020/12/12 03:58:46;;;;;;;14.10;11.13;;;4.70;99.90;;;;;;5057061;28;20684;-53
2020/12/12 04:01:11;;;;;;;13.03;10.93;;;4.60;99.90;;;;;;5057076;28;20206;-52
2020/12/12 04:03:37;;;;;;;12.40;10.97;;;4.50;99.90;;;;;;5057216;28;20175;-53
2020/12/12 04:06:03;;;;;;;13.60;10.83;;;4.50;99.90;;;;;;5057366;28;20179;-52
2020/12/12 04:08:28;;;;;;;12.63;10.70;;;4.60;99.90;;;;;;5057165;28;20191;-52
2020/12/12 04:10:54;;;;;;;12.93;10.60;;;4.60;99.90;;;;;;5056805;28;20290;-61
2020/12/12 04:13:19;;;;;;;14.43;12.07;;;4.70;99.90;;;;;;5057217;28;20209;-59
2020/12/12 04:15:45;;;;;;;14.40;11.53;;;4.70;99.90;;;;;;5056865;28;20210;-53
2020/12/12 04:18:10;;;;;;;13.87;11.00;;;4.70;99.90;;;;;;5057733;28;20203;-58
2020/12/12 04:20:36;;;;;;;13.23;10.80;;;4.60;99.90;;;;;;5057105;28;20579;-53
2020/12/12 04:23:01;;;;;;;12.97;10.90;;;4.40;99.90;;;;;;5055515;28;20179;-53
2020/12/12 04:25:27;;;;;;;13.37;11.17;;;4.30;99.90;;;;;;5056367;28;20178;-61
2020/12/12 04:27:52;;;;;;;13.77;11.40;;;4.40;99.90;;;;;;5056588;28;20198;-57
2020/12/12 04:30:18;;;;;;;13.73;11.00;;;4.40;99.90;;;;;;5056742;28;20175;-55
2020/12/12 04:32:44;;;;;;;12.93;11.23;;;4.20;99.90;;;;;;5056962;28;20643;-59
2020/12/12 04:35:09;;;;;;;12.53;10.80;;;4.10;99.90;;;;;;5056878;28;20515;-60
2020/12/12 04:37:35;;;;;;;14.03;10.70;;;4.00;99.90;;;;;;5055498;28;20658;-59
2020/12/12 04:40:02;;;;;;;13.13;10.60;;;3.90;99.90;;;;;;5056983;28;20190;-60
2020/12/12 04:42:31;;;;;;;12.53;10.90;;;3.90;99.90;;;;;;5056166;28;20213;-58
2020/12/12 04:44:57;;;;;;;13.17;10.53;;;3.90;99.90;;;;;;5056705;28;20182;-57
2020/12/12 04:47:24;;;;;;;13.37;11.17;;;3.90;99.90;;;;;;5055991;28;20562;-51
2020/12/12 04:49:49;;;;;;;12.97;11.13;;;4.00;99.90;;;;;;5056179;28;20202;-55
2020/12/12 04:52:17;;;;;;;12.67;10.50;;;4.10;99.90;;;;;;5056665;28;20210;-59
2020/12/12 04:54:46;;;;;;;14.43;11.30;;;4.20;99.90;;;;;;5056001;28;20573;-55
2020/12/12 04:57:12;;;;;;;14.40;11.57;;;4.20;99.90;;;;;;5056036;28;20210;-53
2020/12/12 04:59:41;;;;;;;13.00;11.03;;;4.30;99.90;;;;;;5055976;28;20177;-53
2020/12/12 05:02:08;;;;;;;12.73;11.00;;;4.40;99.90;;;;;;5055923;28;20214;-59
2020/12/12 05:04:34;;;;;;;13.30;11.20;;;4.30;99.90;;;;;;5056416;28;20187;-56
2020/12/12 05:06:59;;;;;;;13.53;11.97;;;4.30;99.90;;;;;;5055934;28;20230;-53
2020/12/12 05:09:27;;;;;;;16.20;11.70;;;4.30;99.90;;;;;;5055774;28;20228;-60
2020/12/12 05:11:52;;;;;;;14.90;11.93;;;4.30;99.90;;;;;;5055825;28;20195;-54
2020/12/12 05:14:18;;;;;;;13.70;12.10;;;4.30;99.90;;;;;;5055570;28;20190;-52
2020/12/12 05:16:46;;;;;;;15.70;12.47;;;4.40;99.90;;;;;;5055395;28;20195;-60
2020/12/12 05:19:15;;;;;;;15.17;11.70;;;4.40;99.90;;;;;;5056171;28;20180;-56
2020/12/12 05:21:54;;;;;;;15.17;12.27;;;4.40;99.90;;;;;;5056046;28;20543;-57
2020/12/12 05:24:24;;;;;;;15.00;11.80;;;4.30;99.90;;;;;;5055556;28;20187;-51
2020/12/12 05:26:49;;;;;;;15.47;12.57;;;4.10;99.90;;;;;;5055359;28;20844;-58
2020/12/12 05:29:15;;;;;;;13.27;11.70;;;4.00;99.90;;;;;;5054200;28;20179;-51
2020/12/12 05:31:42;;;;;;;15.93;12.90;;;3.90;99.90;;;;;;5055879;28;20179;-58
2020/12/12 05:34:14;;;;;;;19.37;16.27;;;4.00;99.90;;;;;;5037609;28;20180;-59
2020/12/12 05:36:41;;;;;;;18.40;15.73;;;4.10;99.90;;;;;;5055084;28;20188;-61
2020/12/12 05:39:12;;;;;;;20.23;17.10;;;4.20;99.90;;;;;;5055338;28;20197;-51
2020/12/12 05:41:39;;;;;;;18.07;15.17;;;4.40;99.90;;;;;;5055938;28;20301;-53
2020/12/12 05:44:05;;;;;;;15.93;13.77;;;4.50;99.90;;;;;;5053899;28;20186;-59
2020/12/12 05:46:31;;;;;;;15.47;13.27;;;4.50;99.90;;;;;;5054274;28;20175;-60
2020/12/12 05:48:57;;;;;;;15.13;13.20;;;4.60;99.90;;;;;;5055155;28;20190;-57
2020/12/12 05:51:23;;;;;;;15.50;13.37;;;4.60;99.90;;;;;;5054095;28;20682;-54
2020/12/12 05:53:49;;;;;;;16.93;13.83;;;4.60;99.90;;;;;;5054996;28;20270;-53
2020/12/12 05:56:15;;;;;;;14.13;12.03;;;4.60;99.90;;;;;;5055277;28;20203;-51
2020/12/12 05:58:44;;;;;;;15.83;12.87;;;4.70;99.90;;;;;;5054010;28;20202;-53
2020/12/12 06:01:17;;;;;;;17.23;13.80;;;4.70;99.90;;;;;;5054672;28;20203;-53
2020/12/12 06:04:07;;;;;;;15.70;13.43;;;4.70;99.90;;;;;;5054678;28;20183;-57
2020/12/12 06:06:41;;;;;;;15.53;12.70;;;4.70;99.90;;;;;;5054731;28;20156;-60
2020/12/12 06:09:09;;;;;;;15.50;12.63;;;4.80;99.90;;;;;;5054887;28;20214;-61
2020/12/12 06:11:40;;;;;;;15.13;12.83;;;4.80;99.90;;;;;;5054532;28;20203;-51
2020/12/12 06:14:06;;;;;;;15.43;12.73;;;4.70;99.90;;;;;;5055104;28;20167;-53
2020/12/12 06:16:34;;;;;;;15.10;12.37;;;4.70;99.90;;;;;;5054842;28;20179;-52
2020/12/12 06:19:07;;;;;;;13.50;10.97;;;4.70;99.90;;;;;;5054776;28;20690;-61
2020/12/12 06:21:34;;;;;;;16.27;13.20;;;4.80;99.90;;;;;;5055457;28;20206;-58
2020/12/12 06:24:00;;;;;;;15.03;12.83;;;4.80;99.90;;;;;;5054578;28;20191;-54
2020/12/12 06:26:56;;;;;;;16.27;13.37;;;4.80;99.90;;;;;;5054927;28;20171;-54
2020/12/12 06:29:25;;;;;;;15.13;12.73;;;4.80;99.90;;;;;;5046010;28;20214;-57
2020/12/12 06:31:51;;;;;;;15.53;12.73;;;4.70;99.90;;;;;;5054660;28;20185;-54
2020/12/12 06:34:17;;;;;;;16.23;13.40;;;4.70;99.90;;;;;;5051881;28;20269;-54
2020/12/12 06:36:48;;;;;;;16.37;13.20;;;4.70;99.90;;;;;;5045605;28;20629;-60
2020/12/12 06:39:24;;;;;;;17.73;13.50;;;4.60;99.90;;;;;;5042680;28;20183;-60
2020/12/12 06:41:58;;;;;;;16.87;13.50;;;4.60;99.90;;;;;;5051211;28;20553;-55
2020/12/12 06:44:50;;;;;;;18.77;13.73;;;4.60;99.90;;;;;;5048507;28;20249;-56
2020/12/12 06:47:15;;;;;;;18.83;14.00;;;4.70;99.90;;;;;;5038481;28;20215;-54
2020/12/12 06:49:42;;;;;;;19.90;14.30;;;4.80;99.90;;;;;;5021178;28;20175;-53
2020/12/12 06:52:27;;;;;;;20.57;14.87;;;4.70;99.90;;;;;;5052896;28;20631;-49
2020/12/12 06:55:05;;;;;;;19.77;14.83;;;4.80;99.90;;;;;;5054044;28;20611;-61
2020/12/12 06:57:44;;;;;;;20.10;14.53;;;4.80;99.90;;;;;;5053706;28;20202;-58
2020/12/12 07:00:26;;;;;;;19.53;15.37;;;4.80;99.90;;;;;;5054207;28;20183;-57
2020/12/12 07:03:03;;;;;;;20.10;15.10;;;4.90;99.90;;;;;;5053556;28;20524;-53
2020/12/12 07:05:37;;;;;;;18.80;14.93;;;4.90;99.90;;;;;;5053717;28;20159;-56
2020/12/12 07:08:05;;;;;;;21.43;15.23;;;4.90;99.90;;;;;;5053584;28;20672;-57
2020/12/12 07:10:31;;;;;;;22.07;15.90;;;4.90;99.90;;;;;;5053367;28;20222;-51
2020/12/12 07:12:59;;;;;;;19.97;15.60;;;4.90;99.90;;;;;;5054342;28;20159;-51
2020/12/12 07:15:34;;;;;;;20.57;15.60;;;5.00;99.90;;;;;;5053879;28;20187;-51
2020/12/12 07:18:11;;;;;;;21.43;15.83;;;5.00;99.90;;;;;;5037121;28;20661;-55
2020/12/12 07:20:39;;;;;;;22.97;15.50;;;5.00;99.90;;;;;;5054260;28;20183;-51
2020/12/12 07:23:06;;;;;;;19.57;15.07;;;5.00;99.90;;;;;;5053585;28;20170;-58
2020/12/12 07:25:32;;;;;;;21.80;15.60;;;5.00;99.90;;;;;;5053387;28;20167;-57
2020/12/12 07:27:58;;;;;;;19.57;15.10;;;4.90;99.90;;;;;;5053869;28;20191;-59
2020/12/12 07:30:24;;;;;;;21.43;16.07;;;4.90;99.90;;;;;;5053839;28;20682;-51
2020/12/12 07:32:50;;;;;;;24.30;17.83;;;4.80;99.90;;;;;;5053882;28;20204;-51
2020/12/12 07:35:15;;;;;;;20.00;15.27;;;6.50;99.90;;;;;;5053685;28;20203;-59
2020/12/12 07:37:41;;;;;;;19.30;14.93;;;4.70;99.90;;;;;;5053441;28;20187;-61
2020/12/12 07:40:06;;;;;;;21.03;15.30;;;4.70;99.90;;;;;;5048289;28;20176;-57
2020/12/12 07:42:34;;;;;;;22.93;16.77;;;4.80;99.90;;;;;;5053543;28;20534;-61
2020/12/12 07:45:14;;;;;;;22.43;16.70;;;4.70;99.90;;;;;;5053400;28;20183;-58
2020/12/12 07:47:40;;;;;;;21.80;16.27;;;4.60;99.90;;;;;;5053738;28;20554;-58
2020/12/12 07:50:06;;;;;;;24.10;16.37;;;4.60;99.90;;;;;;5052599;28;20267;-57
2020/12/12 07:52:32;;;;;;;24.40;16.43;;;4.50;99.90;;;;;;5053298;28;20222;-52
2020/12/12 07:55:11;;;;;;;23.50;16.50;;;4.50;99.90;;;;;;5052770;28;20175;-51
2020/12/12 07:57:42;;;;;;;25.23;18.13;;;4.50;99.90;;;;;;5053766;28;20199;-56
2020/12/12 08:00:10;;;;;;;24.77;17.97;;;4.70;99.90;;;;;;5055063;28;20250;-60
2020/12/12 08:02:36;;;;;;;28.10;20.03;;;4.80;99.90;;;;;;5052945;28;20566;-58
2020/12/12 08:05:04;;;;;;;25.40;18.50;;;4.90;99.90;;;;;;5052915;28;20178;-54
2020/12/12 08:07:31;;;;;;;23.13;16.57;;;5.00;99.90;;;;;;5053021;28;20531;-56
2020/12/12 08:09:58;;;;;;;23.27;17.70;;;5.10;99.90;;;;;;5053701;28;20206;-51
2020/12/12 08:12:29;;;;;;;24.40;17.40;;;5.20;99.90;;;;;;5053385;28;20198;-60
2020/12/12 08:14:57;;;;;;;25.47;18.37;;;5.30;99.90;;;;;;5052855;28;20175;-57
2020/12/12 08:17:31;;;;;;;21.90;16.53;;;5.20;99.90;;;;;;5055979;28;20333;-59
2020/12/12 08:19:56;;;;;;;23.87;17.23;;;5.10;99.90;;;;;;5053896;28;20182;-54
2020/12/12 08:22:24;;;;;;;21.90;16.53;;;5.10;99.90;;;;;;5055522;28;20199;-56
2020/12/12 08:24:50;;;;;;;23.07;16.93;;;5.10;99.90;;;;;;5056941;28;20171;-51
2020/12/12 08:27:25;;;;;;;22.40;16.57;;;5.10;99.90;;;;;;5056325;28;20662;-51
2020/12/12 08:29:51;;;;;;;21.30;15.47;;;5.10;99.90;;;;;;5056622;28;20174;-51
2020/12/12 08:32:32;;;;;;;21.20;16.33;;;5.10;99.90;;;;;;5056544;28;20186;-53
2020/12/12 08:35:13;;;;;;;22.63;17.20;;;5.10;99.90;;;;;;5057460;28;20191;-58
2020/12/12 08:37:49;;;;;;;24.47;17.40;;;5.00;99.90;;;;;;5056477;28;20667;-51
2020/12/12 08:40:14;;;;;;;23.93;17.73;;;4.80;99.90;;;;;;5056630;28;20225;-60
2020/12/12 08:42:40;;;;;;;25.33;19.47;;;4.80;99.90;;;;;;5056149;28;20199;-50
2020/12/12 08:45:16;;;;;;;24.27;17.37;;;4.80;99.90;;;;;;5055978;28;20277;-60
2020/12/12 08:47:42;;;;;;;22.37;17.23;;;4.80;99.90;;;;;;5056057;28;20538;-60
2020/12/12 08:50:07;;;;;;;22.80;17.10;;;5.70;99.90;;;;;;5057188;28;20182;-57
2020/12/12 08:52:33;;;;;;;24.73;18.03;;;4.90;99.90;;;;;;5056368;28;20191;-51
2020/12/12 08:54:59;;;;;;;23.60;17.33;;;4.90;99.90;;;;;;5052859;28;20281;-60
2020/12/12 08:57:25;;;;;;;26.00;19.33;;;5.00;99.90;;;;;;5038316;28;20195;-51
2020/12/12 09:00:00;;;;;;;29.80;19.87;;;5.00;99.90;;;;;;5056389;28;20176;-59
2020/12/12 09:02:27;;;;;;;27.80;19.30;;;5.00;99.90;;;;;;5056452;28;20202;-52
2020/12/12 09:05:09;;;;;;;25.23;18.87;;;5.00;99.90;;;;;;5056787;28;20175;-56
2020/12/12 09:07:35;;;;;;;27.03;19.57;;;4.90;99.90;;;;;;5057065;28;20198;-55
2020/12/12 09:10:12;;;;;;;23.20;17.10;;;4.90;99.90;;;;;;5056276;28;20270;-61
2020/12/12 09:12:45;;;;;;;24.00;17.27;;;4.70;99.90;;;;;;5055659;28;20245;-51
2020/12/12 09:15:13;;;;;;;25.10;18.30;;;4.70;99.90;;;;;;5055566;28;20207;-59
2020/12/12 09:17:38;;;;;;;23.53;16.90;;;4.80;99.90;;;;;;5053394;28;20218;-59
2020/12/12 09:20:06;;;;;;;24.97;17.27;;;4.90;99.90;;;;;;5058287;28;20183;-60
2020/12/12 09:22:32;;;;;;;24.97;17.70;;;5.00;99.90;;;;;;5049921;28;20260;-56
2020/12/12 09:24:57;;;;;;;23.97;17.80;;;5.00;99.90;;;;;;5052619;28;20191;-56
2020/12/12 09:27:23;;;;;;;25.13;18.07;;;5.20;99.90;;;;;;5056659;28;20201;-59
2020/12/12 09:29:48;;;;;;;24.30;16.57;;;5.20;99.90;;;;;;5050251;28;20217;-57
2020/12/12 09:32:14;;;;;;;21.87;16.43;;;5.30;99.90;;;;;;5051489;28;20179;-54
2020/12/12 09:34:39;;;;;;;26.93;18.97;;;5.50;99.90;;;;;;5051528;28;20179;-59
2020/12/12 09:37:05;;;;;;;25.17;18.27;;;5.30;99.90;;;;;;5052979;28;20321;-55
2020/12/12 09:39:31;;;;;;;26.47;19.27;;;5.00;99.90;;;;;;5055892;28;20733;-54
2020/12/12 09:42:00;;;;;;;26.77;19.40;;;4.90;99.90;;;;;;5068015;28;20218;-55
2020/12/12 09:44:29;;;;;;;25.87;17.60;;;4.80;99.90;;;;;;5071926;28;20174;-57
2020/12/12 09:46:54;;;;;;;26.70;18.97;;;4.80;99.90;;;;;;5059212;28;20222;-56
2020/12/12 09:49:21;;;;;;;26.07;17.80;;;4.80;99.90;;;;;;5067466;28;20225;-51
2020/12/12 09:51:47;;;;;;;26.10;19.07;;;4.90;99.90;;;;;;5042077;28;20258;-57
2020/12/12 09:54:13;;;;;;;26.33;18.13;;;5.00;99.90;;;;;;5055705;28;20249;-57
2020/12/12 09:56:39;;;;;;;24.40;17.47;;;5.10;99.90;;;;;;5065099;28;20252;-52
2020/12/12 09:59:05;;;;;;;25.20;18.53;;;5.20;99.90;;;;;;5046433;28;20176;-60
2020/12/12 10:01:30;;;;;;;24.37;17.93;;;5.30;99.90;;;;;;5057295;28;20207;-50
2020/12/12 10:03:56;;;;;;;25.37;17.83;;;5.40;99.90;;;;;;5056805;28;20526;-55
2020/12/12 10:06:22;;;;;;;25.50;18.37;;;5.40;99.90;;;;;;5056598;28;20611;-59
2020/12/12 10:08:47;;;;;;;27.00;19.57;;;5.40;99.90;;;;;;5056544;28;20535;-52
2020/12/12 10:11:13;;;;;;;22.53;17.27;;;5.50;99.90;;;;;;5056399;28;20207;-52
2020/12/12 10:13:38;;;;;;;23.47;16.93;;;5.40;99.90;;;;;;5057188;28;20215;-59
2020/12/12 10:16:04;;;;;;;24.40;17.77;;;5.60;99.90;;;;;;5056789;28;20218;-57
2020/12/12 10:18:30;;;;;;;25.80;17.60;;;5.60;99.90;;;;;;5056620;28;20191;-61
2020/12/12 10:20:56;;;;;;;23.40;17.40;;;5.60;99.90;;;;;;5049915;28;20206;-52
2020/12/12 10:23:21;;;;;;;23.27;17.00;;;5.80;99.90;;;;;;5056367;28;20182;-52
2020/12/12 10:25:47;;;;;;;23.63;17.40;;;6.00;99.90;;;;;;5055443;28;20186;-57
2020/12/12 10:28:13;;;;;;;22.63;16.70;;;6.00;99.90;;;;;;5052478;28;20205;-52
2020/12/12 10:30:38;;;;;;;23.70;18.20;;;6.00;99.90;;;;;;5071015;28;20515;-52
2020/12/12 10:33:07;;;;;;;26.40;19.00;;;5.90;99.90;;;;;;5039758;28;20191;-53
2020/12/12 10:35:33;;;;;;;25.27;17.83;;;5.80;99.90;;;;;;5039933;28;20205;-60
2020/12/12 10:37:59;;;;;;;20.90;16.80;;;5.80;99.90;;;;;;5053253;28;20281;-53
2020/12/12 10:40:35;;;;;;;23.23;17.67;;;5.90;99.90;;;;;;5054261;28;20175;-58
2020/12/12 10:43:02;;;;;;;23.37;16.97;;;6.10;99.90;;;;;;5055123;28;20229;-57
2020/12/12 10:45:28;;;;;;;25.20;18.30;;;6.30;99.90;;;;;;5054936;28;20262;-50
2020/12/12 10:47:54;;;;;;;22.80;17.50;;;6.40;99.90;;;;;;5055447;28;20242;-59
2020/12/12 10:50:19;;;;;;;24.17;17.17;;;6.50;99.90;;;;;;5051491;28;20202;-58
2020/12/12 10:52:45;;;;;;;23.27;16.47;;;6.60;99.90;;;;;;5044847;28;20665;-60
2020/12/12 10:55:10;;;;;;;23.73;16.53;;;6.70;99.90;;;;;;5035538;28;20211;-55
2020/12/12 10:57:36;;;;;;;23.23;17.20;;;6.60;99.90;;;;;;5034173;28;20244;-52
2020/12/12 11:00:04;;;;;;;22.10;16.83;;;6.50;99.90;;;;;;5045481;28;20222;-52
2020/12/12 11:02:32;;;;;;;25.33;18.27;;;6.50;99.90;;;;;;5053957;28;20638;-58
2020/12/12 11:04:58;;;;;;;24.53;18.27;;;6.40;99.90;;;;;;5050422;28;20542;-55
2020/12/12 11:07:23;;;;;;;25.10;19.20;;;6.30;99.90;;;;;;5044944;28;20204;-51
2020/12/12 11:09:49;;;;;;;24.83;18.93;;;6.00;99.90;;;;;;5034728;28;20175;-60
2020/12/12 11:12:15;;;;;;;25.00;18.30;;;5.80;99.90;;;;;;5033699;28;20199;-60
2020/12/12 11:14:42;;;;;;;26.20;17.53;;;5.60;99.90;;;;;;5047350;28;20214;-51
2020/12/12 11:17:07;;;;;;;22.53;15.87;;;5.60;99.90;;;;;;5068412;28;20308;-51
2020/12/12 11:19:33;;;;;;;22.20;16.60;;;5.70;99.90;;;;;;5073636;28;20189;-55
2020/12/12 11:21:59;;;;;;;24.47;17.27;;;5.70;99.90;;;;;;5074367;28;20209;-59
2020/12/12 11:24:25;;;;;;;24.33;17.67;;;5.90;99.90;;;;;;5074088;28;20514;-52
2020/12/12 11:26:52;;;;;;;24.17;17.57;;;5.70;99.90;;;;;;5072903;28;20255;-54
2020/12/12 11:29:18;;;;;;;23.70;17.23;;;5.60;99.90;;;;;;5054382;28;20175;-59
2020/12/12 11:31:47;;;;;;;26.10;19.00;;;5.50;99.90;;;;;;5067834;28;20183;-57
2020/12/12 11:37:11;;;;;;;24.60;18.80;;;5.20;99.90;;;;;;5054365;28;20717;-57
2020/12/12 11:42:27;;;;;;;23.93;17.57;;;5.00;99.90;;;;;;5054821;28;20207;-54
2020/12/12 11:45:24;;;;;;;23.47;16.83;;;4.90;99.90;;;;;;5053508;28;20185;-53
2020/12/12 11:47:47;;;;;;;24.50;17.70;;;5.00;99.90;;;;;;5052821;28;20206;-57
2020/12/12 11:50:13;;;;;;;23.20;17.00;;;5.00;99.90;;;;;;5054035;28;20175;-54
2020/12/12 11:52:42;;;;;;;24.50;17.33;;;5.00;99.90;;;;;;5053762;28;20190;-55
2020/12/12 11:55:07;;;;;;;25.60;18.57;;;5.00;99.90;;;;;;5049119;28;20298;-54
2020/12/12 11:57:33;;;;;;;24.63;18.23;;;5.10;99.90;;;;;;5057029;28;20235;-54
2020/12/12 12:00:06;;;;;;;24.80;19.07;;;5.30;99.90;;;;;;5052579;28;20207;-50
2020/12/12 12:02:31;;;;;;;24.37;17.83;;;5.40;99.90;;;;;;5040052;28;20199;-51
2020/12/12 12:04:57;;;;;;;24.03;18.00;;;5.50;99.90;;;;;;5050308;28;20184;-60
2020/12/12 12:07:22;;;;;;;23.50;17.43;;;5.50;99.90;;;;;;5048868;28;20192;-57
2020/12/12 12:09:51;;;;;;;22.87;18.00;;;5.60;99.90;;;;;;5037038;28;20643;-55
2020/12/12 12:12:17;;;;;;;24.70;18.50;;;5.70;99.90;;;;;;5052006;28;20195;-60
2020/12/12 12:14:42;;;;;;;23.60;17.23;;;5.80;99.90;;;;;;5053068;28;20638;-51
2020/12/12 12:17:08;;;;;;;24.97;18.60;;;5.80;99.90;;;;;;5054611;28;20202;-51
2020/12/12 12:19:33;;;;;;;25.07;19.03;;;5.90;99.90;;;;;;5037070;28;20203;-51
2020/12/12 12:21:59;;;;;;;27.50;20.03;;;6.00;99.90;;;;;;5050654;28;20199;-51
2020/12/12 12:24:25;;;;;;;25.93;19.40;;;5.80;99.90;;;;;;5055159;28;20234;-50
2020/12/12 12:26:50;;;;;;;26.90;20.33;;;5.80;99.90;;;;;;5056805;28;20551;-53
2020/12/12 12:29:20;;;;;;;28.83;19.30;;;5.60;99.90;;;;;;5051794;28;20199;-60
2020/12/12 12:31:48;;;;;;;26.17;19.27;;;5.40;99.90;;;;;;5056844;28;20232;-54
2020/12/12 12:34:14;;;;;;;26.47;19.60;;;5.30;99.90;;;;;;5048640;28;20187;-58
2020/12/12 12:36:40;;;;;;;24.67;19.00;;;5.20;99.90;;;;;;5054939;28;20207;-53
2020/12/12 12:39:08;;;;;;;24.17;18.43;;;5.20;99.90;;;;;;5047386;28;20186;-59
2020/12/12 12:41:34;;;;;;;26.57;19.70;;;5.20;99.90;;;;;;5039763;28;20207;-51
2020/12/12 12:44:04;;;;;;;29.47;21.50;;;5.30;99.90;;;;;;5054660;28;20492;-51
2020/12/12 12:46:31;;;;;;;27.07;19.93;;;5.50;99.90;;;;;;5036188;28;20172;-58